createdAt,value
2023-01-29T00:02:13.341Z,70.16
2023-01-29T00:04:39.988Z,70.66
2023-01-29T00:07:06.514Z,69.93
2023-01-29T00:09:33.220Z,70.51
2023-01-29T00:11:59.826Z,69.55
2023-01-29T00:14:29.268Z,70.66
2023-01-29T00:16:55.940Z,70.86
2023-01-29T00:19:25.263Z,71.31
2023-01-29T00:21:51.874Z,70.88
2023-01-29T00:24:18.455Z,69.97
2023-01-29T00:26:45.041Z,71.02
2023-01-29T00:29:11.697Z,71.15
2023-01-29T00:31:38.434Z,71.35
2023-01-29T00:34:05.009Z,70.93
2023-01-29T00:36:31.563Z,71.26
2023-01-29T00:39:03.532Z,71.42
2023-01-29T00:41:51.154Z,70.50
2023-01-29T00:44:36.298Z,70.41
2023-01-29T00:47:03.597Z,70.27
2023-01-29T00:49:33.252Z,71.16
2023-01-29T00:52:18.288Z,71.00
2023-01-29T00:54:44.825Z,71.53
2023-01-29T00:57:11.338Z,72.04
2023-01-29T00:59:38.087Z,70.96
2023-01-29T01:02:23.103Z,71.40
2023-01-29T01:04:49.670Z,70.95
2023-01-29T01:07:16.299Z,71.03
2023-01-29T01:10:01.542Z,71.21
2023-01-29T01:12:28.887Z,70.92
2023-01-29T01:14:55.511Z,69.77
2023-01-29T01:17:22.267Z,70.97
2023-01-29T01:19:48.874Z,70.48
2023-01-29T01:22:15.481Z,70.35
2023-01-29T01:24:42.062Z,71.22
2023-01-29T01:27:08.651Z,71.01
2023-01-29T01:29:35.188Z,71.29
2023-01-29T01:32:02.058Z,71.01
2023-01-29T01:34:29.115Z,71.14
2023-01-29T01:36:56.403Z,72.11
2023-01-29T01:39:25.008Z,70.72
2023-01-29T01:41:53.680Z,71.59
2023-01-29T01:44:51.140Z,70.36
2023-01-29T01:47:20.693Z,71.02
2023-01-29T01:49:47.808Z,70.95
2023-01-29T01:52:16.574Z,71.71
2023-01-29T01:54:44.330Z,71.04
2023-01-29T01:57:16.907Z,71.98
2023-01-29T01:59:49.032Z,72.11
2023-01-29T02:02:36.121Z,71.75
2023-01-29T02:05:21.382Z,71.70
2023-01-29T02:08:09.251Z,71.46
2023-01-29T02:10:41.658Z,72.16
2023-01-29T02:13:09.081Z,71.97
2023-01-29T02:15:35.719Z,72.38
2023-01-29T02:18:02.422Z,72.70
2023-01-29T02:20:32.072Z,73.36
2023-01-29T02:23:14.272Z,73.03
2023-01-29T02:25:59.533Z,74.02
2023-01-29T02:28:29.024Z,74.26
2023-01-29T02:31:39.716Z,74.14
2023-01-29T02:34:29.373Z,74.58
2023-01-29T02:37:10.448Z,74.57
2023-01-29T02:40:06.534Z,75.08
2023-01-29T02:42:51.403Z,75.42
2023-01-29T02:45:32.771Z,75.50
2023-01-29T02:48:02.055Z,74.69
2023-01-29T02:50:41.837Z,75.75
2023-01-29T02:53:15.059Z,76.84
2023-01-29T02:55:51.815Z,76.34
2023-01-29T02:58:25.446Z,75.28
2023-01-29T03:00:54.339Z,76.09
2023-01-29T03:03:23.404Z,75.95
2023-01-29T03:06:08.760Z,75.89
2023-01-29T03:08:57.817Z,76.17
2023-01-29T03:11:27.112Z,76.21
2023-01-29T03:14:00.274Z,75.64
2023-01-29T03:16:34.755Z,75.87
2023-01-29T03:19:13.845Z,74.55
2023-01-29T03:21:59.201Z,73.50
2023-01-29T03:25:00.991Z,74.04
2023-01-29T03:27:51.527Z,73.64
2023-01-29T03:30:42.440Z,72.89
2023-01-29T03:33:12.256Z,72.92
2023-01-29T03:35:48.413Z,72.77
2023-01-29T03:38:15.915Z,72.66
2023-01-29T03:40:42.397Z,73.14
2023-01-29T03:43:18.913Z,73.52
2023-01-29T03:46:04.776Z,73.51
2023-01-29T03:48:40.161Z,73.56
2023-01-29T03:51:34.430Z,73.61
2023-01-29T03:54:07.896Z,73.87
2023-01-29T03:56:40.369Z,74.29
2023-01-29T03:59:24.553Z,73.94
2023-01-29T04:01:54.562Z,74.42
2023-01-29T04:04:26.851Z,74.11
2023-01-29T04:06:57.717Z,74.77
2023-01-29T04:09:31.461Z,74.53
2023-01-29T04:12:09.308Z,75.16
2023-01-29T04:14:37.474Z,74.85
2023-01-29T04:17:12.446Z,74.72
2023-01-29T04:19:39.444Z,74.64
2023-01-29T04:22:14.067Z,74.80
2023-01-29T04:24:42.556Z,75.00
2023-01-29T04:27:46.451Z,75.38
2023-01-29T04:30:28.204Z,74.44
2023-01-29T04:33:02.164Z,75.68
2023-01-29T04:35:43.841Z,75.57
2023-01-29T04:38:16.061Z,74.88
2023-01-29T04:40:51.009Z,75.29
2023-01-29T04:43:32.694Z,75.46
2023-01-29T04:46:15.416Z,75.67
2023-01-29T04:48:58.213Z,75.10
2023-01-29T04:51:46.065Z,75.11
2023-01-29T04:54:50.977Z,75.03
2023-01-29T04:57:25.510Z,76.01
2023-01-29T05:00:05.233Z,75.96
2023-01-29T05:02:33.643Z,75.38
2023-01-29T05:05:00.442Z,75.70
2023-01-29T05:07:30.877Z,76.00
2023-01-29T05:09:57.788Z,75.70
2023-01-29T05:12:28.708Z,75.32
2023-01-29T05:15:00.577Z,75.22
2023-01-29T05:17:27.937Z,74.99
2023-01-29T05:19:56.451Z,75.47
2023-01-29T05:22:23.411Z,75.54
2023-01-29T05:24:50.796Z,75.29
2023-01-29T05:27:40.148Z,75.90
2023-01-29T05:30:07.527Z,75.85
2023-01-29T05:32:34.109Z,76.20
2023-01-29T05:35:00.692Z,75.72
2023-01-29T05:37:27.418Z,75.78
2023-01-29T05:39:53.936Z,75.77
2023-01-29T05:42:20.743Z,76.75
2023-01-29T05:44:47.259Z,76.27
2023-01-29T05:47:13.976Z,76.58
2023-01-29T05:49:40.460Z,76.97
2023-01-29T05:52:06.995Z,76.84
2023-01-29T05:54:33.735Z,76.41
2023-01-29T05:57:00.246Z,76.43
2023-01-29T05:59:26.757Z,76.74
2023-01-29T06:01:53.333Z,76.59
2023-01-29T06:04:19.933Z,76.12
2023-01-29T06:06:46.470Z,76.94
2023-01-29T06:09:13.128Z,76.09
2023-01-29T06:11:40.089Z,76.82
2023-01-29T06:14:06.886Z,77.66
2023-01-29T06:16:33.611Z,76.73
2023-01-29T06:19:00.457Z,77.55
2023-01-29T06:21:26.981Z,76.84
2023-01-29T06:23:54.223Z,77.48
2023-01-29T06:26:21.002Z,77.84
2023-01-29T06:28:51.203Z,76.28
2023-01-29T06:31:38.492Z,76.01
2023-01-29T06:34:05.926Z,75.86
2023-01-29T06:36:32.563Z,75.14
2023-01-29T06:38:59.126Z,74.22
2023-01-29T06:41:25.915Z,73.56
2023-01-29T06:43:52.786Z,74.26
2023-01-29T06:46:19.319Z,73.73
2023-01-29T06:48:45.847Z,73.54
2023-01-29T06:51:12.422Z,73.87
2023-01-29T06:53:39.717Z,72.67
2023-01-29T06:56:07.404Z,73.03
2023-01-29T06:58:36.940Z,72.26
2023-01-29T07:01:25.537Z,73.27
2023-01-29T07:04:00.119Z,72.49
2023-01-29T07:06:30.251Z,73.04
2023-01-29T07:08:58.001Z,72.98
2023-01-29T07:11:24.544Z,71.57
2023-01-29T07:13:51.071Z,71.75
2023-01-29T07:16:19.175Z,72.02
2023-01-29T07:18:45.879Z,71.89
2023-01-29T07:21:12.465Z,71.71
2023-01-29T07:23:38.994Z,72.30
2023-01-29T07:26:06.450Z,71.41
2023-01-29T07:28:37.904Z,71.38
2023-01-29T07:31:05.139Z,72.27
2023-01-29T07:33:32.146Z,71.70
2023-01-29T07:35:58.876Z,70.74
2023-01-29T07:38:25.697Z,70.84
2023-01-29T07:40:53.410Z,71.40
2023-01-29T07:43:20.215Z,71.92
2023-01-29T07:45:46.823Z,70.78
2023-01-29T07:48:13.773Z,70.76
2023-01-29T07:50:41.052Z,70.67
2023-01-29T07:53:07.647Z,71.76
2023-01-29T07:55:34.320Z,71.69
2023-01-29T07:58:02.640Z,71.08
2023-01-29T08:00:31.164Z,70.55
2023-01-29T08:03:10.869Z,70.30
2023-01-29T08:05:37.633Z,70.97
2023-01-29T08:08:07.384Z,69.50
2023-01-29T08:10:35.372Z,69.81
2023-01-29T08:13:02.730Z,70.65
2023-01-29T08:15:29.597Z,67.92
2023-01-29T08:20:42.855Z,69.61
2023-01-29T08:23:14.596Z,69.71
2023-01-29T08:25:41.461Z,69.31
2023-01-29T08:28:08.706Z,69.05
2023-01-29T08:30:35.845Z,68.44
2023-01-29T08:33:04.277Z,68.08
2023-01-29T08:35:31.660Z,67.41
2023-01-29T08:38:01.074Z,67.05
2023-01-29T08:40:28.860Z,68.89
2023-01-29T08:43:03.595Z,69.33
2023-01-29T08:45:34.211Z,68.16
2023-01-29T08:48:00.884Z,68.83
2023-01-29T08:50:27.536Z,69.89
2023-01-29T08:52:59.071Z,69.33
2023-01-29T08:55:26.652Z,69.72
2023-01-29T08:57:53.247Z,69.26
2023-01-29T09:00:20.439Z,69.19
2023-01-29T09:02:47.158Z,70.03
2023-01-29T09:05:13.819Z,69.39
2023-01-29T09:07:40.416Z,68.93
2023-01-29T09:10:08.114Z,67.98
2023-01-29T09:12:34.764Z,68.60
2023-01-29T09:15:01.279Z,67.64
2023-01-29T09:17:27.799Z,68.29
2023-01-29T09:19:54.404Z,68.07
2023-01-29T09:22:21.099Z,68.47
2023-01-29T09:24:47.638Z,68.74
2023-01-29T09:27:14.250Z,67.39
2023-01-29T09:29:40.783Z,68.79
2023-01-29T09:32:07.530Z,69.24
2023-01-29T09:34:35.182Z,68.28
2023-01-29T09:37:01.820Z,67.17
2023-01-29T09:39:28.493Z,66.62
2023-01-29T09:42:14.893Z,66.51
2023-01-29T09:45:04.705Z,67.31
2023-01-29T09:47:34.685Z,67.42
2023-01-29T09:50:07.538Z,68.41
2023-01-29T09:53:07.497Z,67.30
2023-01-29T09:55:40.054Z,67.73
2023-01-29T09:58:37.530Z,67.81
2023-01-29T10:01:19.308Z,66.94
2023-01-29T10:03:57.994Z,67.28
2023-01-29T10:07:16.173Z,66.70
2023-01-29T10:10:07.805Z,67.30
2023-01-29T10:12:49.982Z,66.33
2023-01-29T10:15:30.660Z,67.92
2023-01-29T10:18:15.958Z,67.41
2023-01-29T10:21:39.612Z,67.61
2023-01-29T10:24:25.085Z,67.01
2023-01-29T10:26:52.767Z,66.99
2023-01-29T10:29:22.066Z,65.89
2023-01-29T10:31:57.098Z,65.79
2023-01-29T10:34:30.985Z,65.36
2023-01-29T10:36:57.537Z,66.81
2023-01-29T10:39:26.445Z,67.02
2023-01-29T10:42:14.443Z,66.57
2023-01-29T10:45:15.577Z,66.86
2023-01-29T10:47:42.521Z,68.43
2023-01-29T10:50:33.880Z,68.31
2023-01-29T10:53:22.317Z,68.78
2023-01-29T10:55:56.815Z,67.97
2023-01-29T10:58:41.818Z,67.36
2023-01-29T11:01:10.231Z,67.53
2023-01-29T11:03:37.069Z,67.32
2023-01-29T11:06:13.003Z,67.40
2023-01-29T11:08:51.322Z,67.13
2023-01-29T11:11:22.264Z,68.57
2023-01-29T11:13:57.744Z,67.93
2023-01-29T11:16:25.568Z,67.02
2023-01-29T11:18:59.494Z,67.60
2023-01-29T11:21:27.757Z,67.07
2023-01-29T11:24:17.562Z,67.46
2023-01-29T11:26:48.045Z,68.08
2023-01-29T11:29:39.038Z,66.46
2023-01-29T11:32:13.880Z,68.24
2023-01-29T11:35:02.319Z,67.36
2023-01-29T11:37:35.492Z,67.81
2023-01-29T11:40:22.693Z,67.79
2023-01-29T11:42:50.348Z,66.69
2023-01-29T11:45:22.672Z,66.65
2023-01-29T11:47:56.917Z,66.07
2023-01-29T11:50:34.013Z,67.04
2023-01-29T11:53:01.564Z,66.36
2023-01-29T11:55:49.928Z,66.79
2023-01-29T11:58:23.268Z,67.51
2023-01-29T12:00:53.628Z,66.77
2023-01-29T12:03:33.705Z,67.96
2023-01-29T12:06:17.752Z,66.67
2023-01-29T12:08:44.412Z,66.96
2023-01-29T12:11:35.882Z,66.88
2023-01-29T12:14:05.418Z,66.88
2023-01-29T12:17:01.291Z,66.20
2023-01-29T12:19:46.049Z,65.62
2023-01-29T12:22:42.902Z,65.29
2023-01-29T12:25:40.420Z,66.76
2023-01-29T12:28:20.100Z,66.29
2023-01-29T12:30:46.560Z,67.22
2023-01-29T12:33:22.218Z,65.54
2023-01-29T12:35:57.485Z,66.07
2023-01-29T12:38:24.298Z,66.86
2023-01-29T12:40:56.786Z,66.59
2023-01-29T12:43:42.232Z,67.92
2023-01-29T12:46:21.637Z,67.09
2023-01-29T12:48:50.591Z,66.91
2023-01-29T12:51:20.398Z,66.30
2023-01-29T12:53:52.905Z,66.54
2023-01-29T12:56:28.560Z,66.50
2023-01-29T12:58:57.246Z,66.95
2023-01-29T13:01:32.039Z,67.66
2023-01-29T13:04:19.797Z,67.35
2023-01-29T13:07:03.083Z,68.09
2023-01-29T13:09:33.266Z,65.96
2023-01-29T13:12:05.241Z,66.79
2023-01-29T13:15:00.459Z,65.52
2023-01-29T13:17:36.196Z,65.17
2023-01-29T13:20:16.434Z,66.03
2023-01-29T13:22:46.202Z,65.83
2023-01-29T13:25:16.789Z,66.58
2023-01-29T13:27:45.872Z,67.13
2023-01-29T13:30:25.925Z,66.38
2023-01-29T13:32:54.864Z,67.08
2023-01-29T13:35:23.746Z,67.19
2023-01-29T13:37:53.757Z,66.48
2023-01-29T13:40:29.653Z,67.96
2023-01-29T13:42:59.877Z,67.63
2023-01-29T13:45:35.782Z,67.33
2023-01-29T13:48:12.041Z,66.98
2023-01-29T13:50:41.254Z,68.25
2023-01-29T13:53:20.096Z,67.65
2023-01-29T13:55:46.669Z,68.40
2023-01-29T13:58:17.810Z,68.33
2023-01-29T14:00:44.269Z,68.56
2023-01-29T14:03:13.752Z,68.13
2023-01-29T14:06:02.346Z,69.30
2023-01-29T14:08:34.968Z,69.01
2023-01-29T14:11:14.987Z,68.80
2023-01-29T14:13:49.919Z,69.49
2023-01-29T14:16:16.472Z,68.52
2023-01-29T14:18:48.977Z,68.60
2023-01-29T14:21:25.104Z,69.58
2023-01-29T14:23:53.591Z,69.42
2023-01-29T14:26:20.210Z,69.90
2023-01-29T14:29:16.476Z,69.12
2023-01-29T14:31:52.971Z,69.84
2023-01-29T14:34:24.133Z,69.73
2023-01-29T14:36:55.633Z,69.82
2023-01-29T14:39:24.922Z,69.64
2023-01-29T14:41:52.642Z,69.68
2023-01-29T14:44:58.122Z,70.00
2023-01-29T14:47:27.757Z,70.20
2023-01-29T14:49:56.340Z,69.49
2023-01-29T14:52:42.454Z,70.38
2023-01-29T14:55:19.264Z,70.68
2023-01-29T14:57:46.111Z,70.49
2023-01-29T15:00:24.102Z,70.88
2023-01-29T15:03:01.381Z,71.31
2023-01-29T15:05:32.824Z,70.46
2023-01-29T15:08:13.985Z,71.07
2023-01-29T15:10:46.112Z,71.82
2023-01-29T15:13:32.711Z,71.04
2023-01-29T15:16:13.347Z,71.15
2023-01-29T15:18:42.495Z,71.05
2023-01-29T15:21:14.384Z,71.29
2023-01-29T15:23:41.326Z,72.33
2023-01-29T15:26:16.133Z,71.92
2023-01-29T15:28:47.141Z,72.22
2023-01-29T15:31:18.458Z,72.71
2023-01-29T15:33:47.978Z,72.97
2023-01-29T15:36:31.603Z,71.92
2023-01-29T15:39:13.079Z,73.09
2023-01-29T15:41:39.685Z,73.37
2023-01-29T15:44:24.759Z,73.19
2023-01-29T15:46:54.914Z,73.62
2023-01-29T15:49:39.504Z,73.89
2023-01-29T15:52:12.108Z,73.81
2023-01-29T15:54:39.022Z,74.19
2023-01-29T15:57:06.263Z,74.74
2023-01-29T15:59:39.025Z,74.54
2023-01-29T16:02:37.402Z,73.93
2023-01-29T16:05:07.118Z,74.09
2023-01-29T16:07:36.030Z,74.06
2023-01-29T16:10:03.324Z,74.24
2023-01-29T16:12:32.139Z,74.06
2023-01-29T16:14:59.569Z,73.97
2023-01-29T16:17:30.411Z,73.56
2023-01-29T16:19:59.303Z,73.88
2023-01-29T16:22:32.069Z,74.25
2023-01-29T16:25:03.529Z,74.37
2023-01-29T16:27:31.287Z,73.78
2023-01-29T16:29:58.027Z,74.12
2023-01-29T16:32:24.802Z,73.97
2023-01-29T16:34:57.911Z,73.66
2023-01-29T16:37:30.333Z,73.46
2023-01-29T16:39:57.759Z,74.58
2023-01-29T16:42:29.719Z,74.11
2023-01-29T16:45:05.307Z,73.95
2023-01-29T16:47:34.100Z,73.77
2023-01-29T16:50:36.087Z,73.76
2023-01-29T16:53:23.108Z,73.49
2023-01-29T16:55:51.331Z,74.32
2023-01-29T16:58:28.196Z,73.87
2023-01-29T17:01:09.846Z,73.66
2023-01-29T17:03:38.283Z,72.92
2023-01-29T17:06:12.635Z,73.28
2023-01-29T17:08:42.459Z,72.97
2023-01-29T17:11:24.421Z,73.56
2023-01-29T17:13:51.092Z,72.85
2023-01-29T17:16:25.712Z,72.86
2023-01-29T17:18:52.593Z,73.01
2023-01-29T17:21:19.503Z,73.06
2023-01-29T17:23:46.232Z,73.11
2023-01-29T17:26:14.527Z,72.56
2023-01-29T17:28:42.134Z,72.53
2023-01-29T17:31:09.250Z,73.10
2023-01-29T17:33:37.711Z,73.15
2023-01-29T17:36:04.545Z,72.91
2023-01-29T17:38:31.879Z,72.58
2023-01-29T17:41:03.690Z,72.05
2023-01-29T17:43:30.247Z,71.65
2023-01-29T17:45:56.943Z,72.13
2023-01-29T17:48:29.742Z,71.96
2023-01-29T17:51:03.697Z,71.97
2023-01-29T17:53:44.302Z,72.20
2023-01-29T17:56:23.481Z,71.97
2023-01-29T17:58:50.071Z,71.65
2023-01-29T18:01:16.631Z,71.29
2023-01-29T18:03:43.228Z,71.99
2023-01-29T18:06:12.662Z,71.24
2023-01-29T18:08:39.974Z,71.13
2023-01-29T18:11:07.423Z,70.70
2023-01-29T18:13:36.112Z,70.99
2023-01-29T18:16:03.000Z,70.78
2023-01-29T18:18:29.698Z,71.21
2023-01-29T18:20:56.251Z,70.85
2023-01-29T18:23:22.905Z,70.39
2023-01-29T18:25:49.474Z,70.67
2023-01-29T18:28:17.650Z,70.20
2023-01-29T18:30:47.189Z,70.81
2023-01-29T18:33:15.173Z,70.81
2023-01-29T18:35:44.125Z,71.41
2023-01-29T18:38:10.782Z,71.27
2023-01-29T18:40:37.361Z,71.22
2023-01-29T18:43:04.282Z,71.03
2023-01-29T18:45:31.325Z,70.55
2023-01-29T18:47:57.941Z,70.65
2023-01-29T18:50:26.257Z,71.31
2023-01-29T18:52:54.112Z,70.18
2023-01-29T18:55:21.418Z,71.55
2023-01-29T18:58:27.272Z,70.47
2023-01-29T19:00:34.858Z,70.79
2023-01-29T19:03:04.322Z,70.25
2023-01-29T19:05:33.591Z,70.87
2023-01-29T19:08:00.231Z,70.38
2023-01-29T19:10:26.759Z,70.90
2023-01-29T19:12:53.295Z,71.02
2023-01-29T19:15:21.978Z,70.73
2023-01-29T19:17:49.929Z,70.29
2023-01-29T19:20:19.354Z,70.14
2023-01-29T19:22:46.039Z,70.24
2023-01-29T19:25:12.850Z,69.95
2023-01-29T19:27:39.561Z,69.73
2023-01-29T19:30:07.400Z,70.23
2023-01-29T19:32:34.657Z,70.64
2023-01-29T19:35:01.271Z,69.66
2023-01-29T19:37:30.489Z,70.11
2023-01-29T19:39:57.117Z,70.38
2023-01-29T19:42:23.827Z,70.31
2023-01-29T19:44:52.064Z,70.40
2023-01-29T19:47:18.988Z,69.66
2023-01-29T19:49:45.658Z,70.27
2023-01-29T19:52:49.892Z,70.00
2023-01-29T19:55:19.122Z,71.23
2023-01-29T19:57:46.097Z,70.00
2023-01-29T20:00:14.827Z,70.68
2023-01-29T20:02:41.402Z,70.78
2023-01-29T20:05:12.977Z,70.11
2023-01-29T20:07:41.146Z,69.57
2023-01-29T20:10:11.284Z,70.50
2023-01-29T20:12:38.216Z,70.60
2023-01-29T20:15:05.101Z,69.88
2023-01-29T20:17:31.913Z,71.72
2023-01-29T20:19:58.458Z,71.24
2023-01-29T20:22:26.236Z,71.39
2023-01-29T20:24:52.867Z,71.67
2023-01-29T20:27:19.429Z,72.60
2023-01-29T20:29:46.663Z,71.59
2023-01-29T20:32:14.508Z,71.36
2023-01-29T20:34:41.592Z,72.52
2023-01-29T20:37:08.132Z,71.44
2023-01-29T20:39:34.705Z,72.14
2023-01-29T20:42:01.483Z,71.79
2023-01-29T20:44:28.047Z,71.89
2023-01-29T20:46:54.894Z,71.60
2023-01-29T20:49:21.806Z,71.72
2023-01-29T20:51:48.380Z,72.72
2023-01-29T20:54:15.158Z,71.79
2023-01-29T20:56:47.148Z,71.33
2023-01-29T20:59:14.351Z,71.98
2023-01-29T21:01:42.037Z,72.09
2023-01-29T21:04:08.870Z,72.60
2023-01-29T21:06:35.470Z,72.20
2023-01-29T21:09:02.024Z,72.02
2023-01-29T21:11:28.688Z,73.53
2023-01-29T21:13:57.787Z,74.13
2023-01-29T21:16:26.300Z,72.65
2023-01-29T21:18:57.055Z,72.19
2023-01-29T21:21:24.058Z,72.09
2023-01-29T21:23:50.577Z,72.33
2023-01-29T21:26:17.201Z,73.50
2023-01-29T21:28:43.756Z,72.63
2023-01-29T21:31:12.391Z,72.45
2023-01-29T21:33:38.933Z,72.55
2023-01-29T21:36:06.208Z,70.59
2023-01-29T21:38:33.048Z,71.46
2023-01-29T21:41:01.413Z,71.02
2023-01-29T21:43:27.998Z,70.33
2023-01-29T21:45:56.508Z,71.04
2023-01-29T21:48:23.253Z,69.85
2023-01-29T21:50:50.353Z,69.67
2023-01-29T21:53:18.099Z,68.72
2023-01-29T21:55:45.913Z,69.27
2023-01-29T21:58:14.413Z,69.05
2023-01-29T22:00:41.185Z,69.04
2023-01-29T22:03:07.786Z,69.00
2023-01-29T22:05:34.802Z,69.66
2023-01-29T22:08:01.578Z,68.61
2023-01-29T22:10:28.894Z,69.25
2023-01-29T22:12:55.695Z,69.18
2023-01-29T22:15:23.880Z,69.64
2023-01-29T22:17:50.923Z,69.04
2023-01-29T22:20:18.945Z,68.89
2023-01-29T22:22:45.750Z,69.25
2023-01-29T22:25:12.423Z,68.69
2023-01-29T22:27:38.998Z,68.70
2023-01-29T22:30:06.241Z,69.11
2023-01-29T22:32:33.059Z,69.27
2023-01-29T22:34:59.687Z,69.43
2023-01-29T22:37:26.218Z,69.38
2023-01-29T22:39:52.825Z,68.41
2023-01-29T22:42:20.733Z,69.58
2023-01-29T22:44:48.401Z,69.11
2023-01-29T22:47:15.298Z,67.67
2023-01-29T22:49:41.839Z,68.19
2023-01-29T22:52:11.162Z,67.42
2023-01-29T22:54:42.757Z,67.96
2023-01-29T22:57:13.712Z,68.79
2023-01-29T22:59:40.909Z,68.29
2023-01-29T23:02:08.317Z,68.95
2023-01-29T23:04:34.935Z,67.62
2023-01-29T23:07:01.593Z,68.99
2023-01-29T23:09:28.620Z,68.00
2023-01-29T23:11:55.163Z,67.78
2023-01-29T23:14:21.816Z,67.27
2023-01-29T23:16:48.367Z,68.09
2023-01-29T23:19:14.921Z,68.48
2023-01-29T23:21:41.491Z,68.43
2023-01-29T23:24:08.756Z,68.09
2023-01-29T23:26:53.844Z,68.08
2023-01-29T23:29:20.483Z,67.53
2023-01-29T23:31:47.378Z,67.33
2023-01-29T23:34:14.274Z,68.00
2023-01-29T23:36:41.410Z,68.11
2023-01-29T23:39:08.480Z,67.43
2023-01-29T23:41:35.329Z,67.75
2023-01-29T23:44:01.959Z,67.89
2023-01-29T23:46:28.525Z,68.43
2023-01-29T23:48:55.060Z,68.45
2023-01-29T23:51:21.617Z,67.50
2023-01-29T23:53:48.169Z,67.73
2023-01-29T23:56:14.818Z,67.49
2023-01-29T23:58:41.408Z,66.94
